Time,TemperatureF,DewpointF,PressureIn,WindDirection,WindDirectionDegrees,WindSpeedMPH,WindSpeedGustMPH,Humidity,HourlyPrecipIn,Conditions,Clouds,dailyrainin,SoftwareType,DateUTC
2013-08-28 00:27:00,71.6,70.0,29.87,NW,321,0.0,-999.0,96,-99.99,,,0.00,weatherlink.com 1.10,2013-08-28 04:27:00,
2013-08-28 00:42:00,72.0,71.0,29.86,NW,321,0.0,-999.0,96,-99.99,,,0.00,weatherlink.com 1.10,2013-08-28 04:42:00,
2013-08-28 00:57:00,72.1,71.0,29.87,NW,321,0.0,-999.0,96,-99.99,,,0.00,weatherlink.com 1.10,2013-08-28 04:57:00,
2013-08-28 01:12:00,72.0,71.0,29.86,NW,321,0.0,-999.0,95,-99.99,,,0.00,weatherlink.com 1.10,2013-08-28 05:12:00,
2013-08-28 01:27:00,71.7,70.0,29.86,NW,321,0.0,-999.0,95,-99.99,,,0.00,weatherlink.com 1.10,2013-08-28 05:27:00,
2013-08-28 01:42:00,71.6,70.0,29.86,NW,321,0.0,-999.0,96,-99.99,,,0.00,weatherlink.com 1.10,2013-08-28 05:42:00,
2013-08-28 01:57:00,71.2,70.0,29.86,NW,321,0.0,-999.0,96,-99.99,,,0.00,weatherlink.com 1.10,2013-08-28 05:57:00,
2013-08-28 02:12:00,71.0,70.0,29.86,NW,321,0.0,-999.0,96,-99.99,,,0.00,weatherlink.com 1.10,2013-08-28 06:12:00,
2013-08-28 02:27:00,71.1,70.0,29.85,NW,321,0.0,-999.0,96,-99.99,,,0.00,weatherlink.com 1.10,2013-08-28 06:27:00,
2013-08-28 02:42:00,71.6,71.0,29.86,NW,321,2.0,-999.0,97,-99.99,,,0.00,weatherlink.com 1.10,2013-08-28 06:42:00,
2013-08-28 02:57:00,72.0,71.0,29.85,East,84,0.0,-999.0,96,-99.99,,,0.00,weatherlink.com 1.10,2013-08-28 06:57:00,
2013-08-28 03:12:00,71.6,70.0,29.86,South,169,0.0,-999.0,95,-99.99,,,0.01,weatherlink.com 1.10,2013-08-28 07:12:00,
2013-08-28 03:27:00,71.4,70.0,29.85,South,169,0.0,-999.0,95,-99.99,,,0.02,weatherlink.com 1.10,2013-08-28 07:27:00,
2013-08-28 03:42:00,71.1,70.0,29.86,South,169,0.0,-999.0,95,-99.99,,,0.04,weatherlink.com 1.10,2013-08-28 07:42:00,
2013-08-28 03:57:00,70.7,69.0,29.86,South,169,0.0,-999.0,95,-99.99,,,0.04,weatherlink.com 1.10,2013-08-28 07:57:00,
2013-08-28 04:12:00,70.2,69.0,29.86,South,169,0.0,-999.0,95,-99.99,,,0.01,weatherlink.com 1.10,2013-08-28 08:12:00,
2013-08-28 04:27:00,70.0,69.0,29.86,South,169,0.0,-999.0,96,-99.99,,,0.02,weatherlink.com 1.10,2013-08-28 08:27:00,
2013-08-28 04:42:00,69.8,69.0,29.86,South,169,0.0,-999.0,96,-99.99,,,0.02,weatherlink.com 1.10,2013-08-28 08:42:00,
2013-08-28 04:57:00,69.8,69.0,29.85,South,169,0.0,-999.0,96,-99.99,,,0.03,weatherlink.com 1.10,2013-08-28 08:57:00,
2013-08-28 05:12:00,69.6,69.0,29.84,South,169,0.0,-999.0,96,-99.99,,,0.03,weatherlink.com 1.10,2013-08-28 09:12:00,
2013-08-28 05:27:00,69.5,68.0,29.84,South,169,0.0,-999.0,96,-99.99,,,0.04,weatherlink.com 1.10,2013-08-28 09:27:00,
2013-08-28 05:42:00,69.3,69.0,29.84,South,169,0.0,-999.0,97,-99.99,,,0.04,weatherlink.com 1.10,2013-08-28 09:42:00,
2013-08-28 05:57:00,69.3,69.0,29.83,South,169,0.0,-999.0,97,-99.99,,,0.04,weatherlink.com 1.10,2013-08-28 09:57:00,
2013-08-28 06:12:00,69.2,68.0,29.84,South,169,0.0,-999.0,97,-99.99,,,0.04,weatherlink.com 1.10,2013-08-28 10:12:00,
2013-08-28 06:27:00,69.2,68.0,29.84,South,169,0.0,-999.0,97,-99.99,,,0.04,weatherlink.com 1.10,2013-08-28 10:27:00,
2013-08-28 06:43:00,69.2,68.0,29.85,South,169,0.0,-999.0,97,-99.99,,,0.04,weatherlink.com 1.10,2013-08-28 10:43:00,
2013-08-28 06:57:00,69.1,68.0,29.85,South,169,0.0,-999.0,97,-99.99,,,0.04,weatherlink.com 1.10,2013-08-28 10:57:00,
2013-08-28 07:13:00,69.2,68.0,29.86,South,169,0.0,-999.0,97,-99.99,,,0.04,weatherlink.com 1.10,2013-08-28 11:13:00,
2013-08-28 07:27:00,69.3,69.0,29.86,South,169,0.0,-999.0,97,-99.99,,,0.04,weatherlink.com 1.10,2013-08-28 11:27:00,
2013-08-28 07:43:00,69.7,69.0,29.86,South,169,0.0,-999.0,97,-99.99,,,0.04,weatherlink.com 1.10,2013-08-28 11:43:00,
2013-08-28 07:58:00,69.9,69.0,29.86,South,169,0.0,-999.0,98,-99.99,,,0.04,weatherlink.com 1.10,2013-08-28 11:58:00,
2013-08-28 08:13:00,70.0,69.0,29.86,South,169,0.0,-999.0,98,-99.99,,,0.04,weatherlink.com 1.10,2013-08-28 12:13:00,
2013-08-28 08:28:00,70.2,69.0,29.86,South,169,0.0,-999.0,97,-99.99,,,0.04,weatherlink.com 1.10,2013-08-28 12:28:00,
2013-08-28 08:43:00,70.6,70.0,29.86,South,169,0.0,-999.0,98,-99.99,,,0.04,weatherlink.com 1.10,2013-08-28 12:43:00,
2013-08-28 08:58:00,71.1,71.0,29.86,South,169,0.0,-999.0,98,-99.99,,,0.04,weatherlink.com 1.10,2013-08-28 12:58:00,
2013-08-28 09:13:00,71.4,71.0,29.86,South,169,0.0,-999.0,97,-99.99,,,0.04,weatherlink.com 1.10,2013-08-28 13:13:00,
2013-08-28 09:30:00,72.3,71.0,29.86,South,169,0.0,-999.0,97,-99.99,,,0.04,weatherlink.com 1.10,2013-08-28 13:30:00,
2013-08-28 09:43:00,72.5,71.0,29.87,South,169,0.0,-999.0,96,-99.99,,,0.04,weatherlink.com 1.10,2013-08-28 13:43:00,
2013-08-28 09:58:00,72.8,71.0,29.86,South,169,0.0,-999.0,95,-99.99,,,0.04,weatherlink.com 1.10,2013-08-28 13:58:00,
2013-08-28 10:13:00,73.5,71.0,29.87,South,169,0.0,-999.0,93,-99.99,,,0.04,weatherlink.com 1.10,2013-08-28 14:13:00,
2013-08-28 10:28:00,73.7,71.0,29.87,South,169,0.0,-999.0,91,-99.99,,,0.04,weatherlink.com 1.10,2013-08-28 14:28:00,
2013-08-28 10:43:00,74.1,71.0,29.86,South,169,0.0,-999.0,90,-99.99,,,0.04,weatherlink.com 1.10,2013-08-28 14:43:00,
2013-08-28 10:58:00,74.5,71.0,29.87,South,169,0.0,-999.0,88,-99.99,,,0.04,weatherlink.com 1.10,2013-08-28 14:58:00,
2013-08-28 11:13:00,74.5,71.0,29.86,South,169,0.0,-999.0,88,-99.99,,,0.04,weatherlink.com 1.10,2013-08-28 15:13:00,
2013-08-28 11:28:00,77.5,72.0,29.87,South,169,0.0,-999.0,83,-99.99,,,0.04,weatherlink.com 1.10,2013-08-28 15:28:00,
2013-08-28 11:58:00,79.4,72.0,29.86,South,169,0.0,-999.0,78,-99.99,,,0.04,weatherlink.com 1.10,2013-08-28 15:58:00,
2013-08-28 12:13:00,80.6,74.0,29.86,South,169,0.0,-999.0,79,-99.99,,,0.04,weatherlink.com 1.10,2013-08-28 16:13:00,
2013-08-28 12:28:00,81.3,73.0,29.85,South,169,0.0,-999.0,76,-99.99,,,0.04,weatherlink.com 1.10,2013-08-28 16:28:00,
2013-08-28 12:58:00,82.0,73.0,29.85,SSE,167,4.0,-999.0,73,-99.99,,,0.04,weatherlink.com 1.10,2013-08-28 16:58:00,
2013-08-28 13:13:00,82.3,73.0,29.85,South,169,2.0,-999.0,73,-99.99,,,0.04,weatherlink.com 1.10,2013-08-28 17:13:00,
2013-08-28 13:28:00,79.4,72.0,29.86,WNW,292,0.0,-999.0,79,-99.99,,,0.04,weatherlink.com 1.10,2013-08-28 17:28:00,
2013-08-28 13:43:00,77.0,72.0,29.86,WNW,303,2.0,-999.0,85,-99.99,,,0.04,weatherlink.com 1.10,2013-08-28 17:43:00,
2013-08-28 13:58:00,78.6,73.0,29.86,WNW,292,1.0,-999.0,82,-99.99,,,0.04,weatherlink.com 1.10,2013-08-28 17:58:00,
2013-08-28 14:28:00,80.3,73.0,29.85,West,275,3.0,-999.0,77,-99.99,,,0.04,weatherlink.com 1.10,2013-08-28 18:28:00,
2013-08-28 14:43:00,81.5,73.0,29.85,NW,309,1.0,-999.0,75,-99.99,,,0.04,weatherlink.com 1.10,2013-08-28 18:43:00,
2013-08-28 14:58:00,80.4,73.0,29.85,WNW,291,3.0,-999.0,79,-99.99,,,0.04,weatherlink.com 1.10,2013-08-28 18:58:00,
2013-08-28 15:13:00,78.7,71.0,29.85,WNW,297,2.0,-999.0,78,-99.99,,,0.04,weatherlink.com 1.10,2013-08-28 19:13:00,
2013-08-28 15:28:00,79.7,72.0,29.85,WSW,257,1.0,-999.0,77,-99.99,,,0.04,weatherlink.com 1.10,2013-08-28 19:28:00,
2013-08-28 15:43:00,80.7,72.0,29.85,WNW,284,1.0,-999.0,74,-99.99,,,0.04,weatherlink.com 1.10,2013-08-28 19:43:00,
2013-08-28 15:58:00,80.4,73.0,29.85,WNW,294,0.0,-999.0,77,-99.99,,,0.04,weatherlink.com 1.10,2013-08-28 19:58:00,
2013-08-28 16:13:00,80.0,72.0,29.85,NW,305,2.0,-999.0,77,-99.99,,,0.04,weatherlink.com 1.10,2013-08-28 20:13:00,
2013-08-28 16:28:00,79.6,72.0,29.86,NNW,342,1.0,-999.0,77,-99.99,,,0.04,weatherlink.com 1.10,2013-08-28 20:28:00,
2013-08-28 16:43:00,79.8,72.0,29.87,WNW,296,2.0,-999.0,77,-99.99,,,0.04,weatherlink.com 1.10,2013-08-28 20:43:00,
2013-08-28 16:58:00,79.4,72.0,29.87,NNW,337,7.0,-999.0,77,-99.99,,,0.04,weatherlink.com 1.10,2013-08-28 20:58:00,
2013-08-28 17:13:00,79.8,72.0,29.86,NW,310,1.0,-999.0,77,-99.99,,,0.04,weatherlink.com 1.10,2013-08-28 21:13:00,
2013-08-28 17:28:00,79.5,72.0,29.86,WNW,286,5.0,-999.0,77,-99.99,,,0.04,weatherlink.com 1.10,2013-08-28 21:28:00,
2013-08-28 17:43:00,79.0,72.0,29.86,NW,313,5.0,-999.0,78,-99.99,,,0.04,weatherlink.com 1.10,2013-08-28 21:43:00,
2013-08-28 17:58:00,79.1,72.0,29.86,NW,319,0.0,-999.0,78,-99.99,,,0.04,weatherlink.com 1.10,2013-08-28 21:58:00,
2013-08-28 18:13:00,79.1,72.0,29.87,NNW,333,1.0,-999.0,78,-99.99,,,0.04,weatherlink.com 1.10,2013-08-28 22:13:00,
2013-08-28 18:28:00,79.1,71.0,29.86,NNW,327,0.0,-999.0,77,-99.99,,,0.04,weatherlink.com 1.10,2013-08-28 22:28:00,
2013-08-28 18:43:00,79.0,72.0,29.87,NNW,327,0.0,-999.0,78,-99.99,,,0.04,weatherlink.com 1.10,2013-08-28 22:43:00,
2013-08-28 18:58:00,78.9,72.0,29.87,NNW,327,0.0,-999.0,79,-99.99,,,0.04,weatherlink.com 1.10,2013-08-28 22:58:00,
2013-08-28 19:14:00,78.0,72.0,29.88,NNW,327,0.0,-999.0,81,-99.99,,,0.04,weatherlink.com 1.10,2013-08-28 23:14:00,
2013-08-28 19:29:00,77.0,71.0,29.88,NNW,327,0.0,-999.0,82,-99.99,,,0.04,weatherlink.com 1.10,2013-08-28 23:29:00,
2013-08-28 19:44:00,75.9,70.0,29.89,NNW,327,0.0,-999.0,83,-99.99,,,0.04,weatherlink.com 1.10,2013-08-28 23:44:00,
2013-08-28 19:59:00,75.2,71.0,29.89,NNW,327,0.0,-999.0,85,-99.99,,,0.04,weatherlink.com 1.10,2013-08-28 23:59:00,
2013-08-28 20:29:00,73.8,70.0,29.90,NNW,327,0.0,-999.0,87,-99.99,,,0.04,weatherlink.com 1.10,2013-08-29 00:29:00,
2013-08-28 20:44:00,73.0,70.0,29.91,NNW,327,0.0,-999.0,89,-99.99,,,0.04,weatherlink.com 1.10,2013-08-29 00:44:00,
2013-08-28 20:59:00,72.4,69.0,29.91,NNW,327,0.0,-999.0,90,-99.99,,,0.04,weatherlink.com 1.10,2013-08-29 00:59:00,
2013-08-28 21:14:00,72.4,70.0,29.92,NNW,327,0.0,-999.0,91,-99.99,,,0.04,weatherlink.com 1.10,2013-08-29 01:14:00,
2013-08-28 21:29:00,72.1,69.0,29.92,NNW,327,0.0,-999.0,91,-99.99,,,0.04,weatherlink.com 1.10,2013-08-29 01:29:00,
2013-08-28 21:44:00,72.4,69.0,29.92,NNW,327,0.0,-999.0,90,-99.99,,,0.04,weatherlink.com 1.10,2013-08-29 01:44:00,
2013-08-28 21:59:00,72.5,70.0,29.92,NNW,327,0.0,-999.0,90,-99.99,,,0.04,weatherlink.com 1.10,2013-08-29 01:59:00,
2013-08-28 22:14:00,72.2,69.0,29.93,NNW,327,0.0,-999.0,90,-99.99,,,0.04,weatherlink.com 1.10,2013-08-29 02:14:00,
2013-08-28 22:29:00,71.8,69.0,29.93,NNW,327,0.0,-999.0,91,-99.99,,,0.04,weatherlink.com 1.10,2013-08-29 02:29:00,
2013-08-28 22:45:00,71.4,69.0,29.93,NNW,327,0.0,-999.0,93,-99.99,,,0.04,weatherlink.com 1.10,2013-08-29 02:45:00,
2013-08-28 22:59:00,71.3,69.0,29.93,NNW,327,0.0,-999.0,93,-99.99,,,0.04,weatherlink.com 1.10,2013-08-29 02:59:00,
2013-08-28 23:14:00,71.4,70.0,29.93,NNW,327,3.0,-999.0,94,-99.99,,,0.04,weatherlink.com 1.10,2013-08-29 03:14:00,
2013-08-28 23:44:00,71.5,70.0,29.94,NW,325,0.0,-999.0,94,-99.99,,,0.04,weatherlink.com 1.10,2013-08-29 03:44:00,
2013-08-28 23:59:00,71.2,69.0,29.94,NW,325,0.0,-999.0,94,-99.99,,,0.04,weatherlink.com 1.10,2013-08-29 03:59:00,